Edison, Washington
Current Conditions -  °F | °C
As of 4:53 AM on Thursday 23 Oct 2014 (Local Time) from KBLI Reporting Station
Overcast Overcast  
Wind Chill: 54°   Ceiling: 11000
Heat Index: 54°   Visibility: 10mi
Dew Point: 48°   Wind: 7mph
Humidity: 80%   Direction: 160°SSE
Pressure: 29.68"   Gusts: NA
Location:  48.5689°N, 122.407°W
Report Text: KBLI 231153Z AUTO 16006KT 10SM FEW049 OVC110 12/09 A2968 RMK AO2 SLP058 60002 70026 T01220089 10133 20117 50006
Loading
Personal Weather Stations






























Interactive Weather Map
Tropical Storm Tracking
New forecast layout! Learn more

10-Day Weather Forecast

Advertisements
Track Severe Weather on mobile